Time;durP1;ratioP1;P1;durP2;ratioP2;P2;SDS_P1;SDS_P2;PMS_P1;PMS_P2;Temp;Humidity;BMP_temperature;BMP_pressure;BME280_temperature;BME280_humidity;BME280_pressure;Samples;Min_cycle;Max_cycle;Signal;HPM_P1;HPM_P2
2022/02/28 00:00:41;;;;;;;;;15.75;14.00;;;;;6.74;48.30;102473.16;5062949;28;45508;-63
2022/02/28 00:03:07;;;;;;;;;18.25;14.75;;;;;6.74;47.99;102466.16;5081017;27;45499;-63
2022/02/28 00:05:33;;;;;;;;;16.25;13.50;;;;;6.74;48.24;102471.41;5081038;28;45496;-63
2022/02/28 00:07:59;;;;;;;;;18.50;14.00;;;;;6.74;48.26;102470.53;5081088;28;45489;-62
2022/02/28 00:10:24;;;;;;;;;19.00;13.00;;;;;6.70;48.37;102465.31;5080933;28;45598;-62
2022/02/28 00:12:50;;;;;;;;;16.50;13.25;;;;;6.71;48.43;102474.03;5074476;27;46481;-62
2022/02/28 00:15:18;;;;;;;;;16.00;14.75;;;;;6.71;48.26;102472.31;5085822;27;45354;-63
2022/02/28 00:17:44;;;;;;;;;14.25;14.00;;;;;6.73;48.01;102480.13;5084643;27;45235;-62
2022/02/28 00:20:13;;;;;;;;;14.00;13.50;;;;;6.72;47.97;102486.28;5084586;27;45477;-62
2022/02/28 00:22:39;;;;;;;;;15.25;12.25;;;;;6.71;48.37;102485.41;5084249;27;45343;-62
2022/02/28 00:25:09;;;;;;;;;19.00;13.25;;;;;6.71;47.97;102480.19;5084304;28;45297;-63
2022/02/28 00:27:35;;;;;;;;;12.25;10.75;;;;;6.69;48.42;102492.41;5084729;28;45232;-63
2022/02/28 00:30:02;;;;;;;;;9.50;5.25;;;;;6.69;48.24;102488.91;5084496;27;45244;-63
2022/02/28 00:32:27;;;;;;;;;16.75;14.00;;;;;6.68;48.24;102492.44;5084201;28;45419;-64
2022/02/28 00:34:53;;;;;;;;;11.00;9.75;;;;;6.66;48.70;102491.59;5093779;27;45330;-61
2022/02/28 00:37:19;;;;;;;;;15.25;11.50;;;;;6.66;48.97;102488.97;5084343;27;45403;-61
2022/02/28 00:39:46;;;;;;;;;15.00;11.00;;;;;6.65;48.45;102489.88;5088113;27;45320;-61
2022/02/28 00:42:12;;;;;;;;;11.00;11.00;;;;;6.64;48.14;102489.00;5100862;27;46289;-61
2022/02/28 00:44:37;;;;;;;;;13.25;10.00;;;;;6.63;48.97;102492.47;5084576;27;45337;-61
2022/02/28 00:47:04;;;;;;;;;16.00;10.75;;;;;6.61;48.54;102486.41;5084058;28;45446;-61
2022/02/28 00:49:30;;;;;;;;;14.33;10.33;;;;;6.61;48.75;102488.16;5084414;28;45232;-61
2022/02/28 00:51:56;;;;;;;;;13.75;9.75;;;;;6.59;48.97;102492.56;5083897;27;45224;-61
2022/02/28 00:54:22;;;;;;;;;12.75;10.25;;;;;6.58;49.23;102486.47;5084107;27;45264;-61
2022/02/28 00:56:47;;;;;;;;;13.50;10.25;;;;;6.58;48.84;102490.84;5084111;27;45332;-61
2022/02/28 00:59:13;;;;;;;;;15.00;9.75;;;;;6.58;48.52;102491.72;5084040;27;45322;-61
2022/02/28 01:01:39;;;;;;;;;14.50;11.25;;;;;6.57;48.52;102492.59;5083785;28;45366;-61
2022/02/28 01:04:06;;;;;;;;;17.50;12.75;;;;;6.56;48.80;102500.47;5083818;27;45316;-61
2022/02/28 01:06:34;;;;;;;;;15.25;11.75;;;;;6.54;49.36;102502.22;5083904;28;45458;-62
2022/02/28 01:08:59;;;;;;;;;14.75;13.50;;;;;6.54;49.00;102507.47;5091088;27;45228;-62
2022/02/28 01:11:26;;;;;;;;;14.00;10.25;;;;;6.52;49.51;102515.34;5104088;27;46054;-61
2022/02/28 01:13:51;;;;;;;;;15.00;11.00;;;;;6.51;49.04;102507.53;5104354;27;45295;-61
2022/02/28 01:16:17;;;;;;;;;14.75;10.75;;;;;6.49;49.44;102507.56;5104344;27;45287;-61
2022/02/28 01:18:42;;;;;;;;;14.50;11.50;;;;;6.47;49.65;102509.31;5103249;27;45556;-61
2022/02/28 01:21:08;;;;;;;;;14.25;10.75;;;;;6.45;49.47;102513.69;5099212;27;45593;-61
2022/02/28 01:23:34;;;;;;;;;16.00;11.00;;;;;6.42;49.00;102513.75;5104068;27;45315;-61
2022/02/28 01:25:59;;;;;;;;;17.75;12.25;;;;;6.41;49.00;102512.03;5103449;27;45298;-61
2022/02/28 01:28:25;;;;;;;;;19.00;15.00;;;;;6.40;49.80;102510.31;5104154;27;45584;-61
2022/02/28 01:30:51;;;;;;;;;20.75;13.75;;;;;6.37;50.08;102505.09;5103644;27;45278;-61
2022/02/28 01:33:16;;;;;;;;;18.00;13.25;;;;;6.35;50.28;102510.34;5103825;27;45361;-61
2022/02/28 01:35:42;;;;;;;;;5.50;2.00;;;;;6.34;49.14;102511.25;5090964;27;45250;-61
2022/02/28 01:38:08;;;;;;;;;13.25;10.25;;;;;6.32;49.17;102510.41;5083363;27;45228;-62
2022/02/28 01:40:34;;;;;;;;;16.00;11.75;;;;;6.31;49.99;102500.78;5088951;27;45895;-61
2022/02/28 01:42:59;;;;;;;;;17.25;10.25;;;;;6.28;50.00;102500.84;5103700;27;45524;-62
2022/02/28 01:45:25;;;;;;;;;13.00;13.00;;;;;6.27;49.97;102498.25;5103964;27;45223;-61
2022/02/28 01:47:52;;;;;;;;;16.25;14.00;;;;;6.26;50.21;102493.91;5103552;27;45255;-61
2022/02/28 01:50:18;;;;;;;;;17.25;14.25;;;;;6.26;49.81;102497.38;5103458;27;46156;-62
2022/02/28 01:52:45;;;;;;;;;10.00;6.50;;;;;6.23;49.52;102497.41;5103342;27;45291;-62
2022/02/28 01:55:13;;;;;;;;;15.25;12.50;;;;;6.21;49.41;102500.94;5103722;27;45424;-61
2022/02/28 01:57:43;;;;;;;;;17.25;9.75;;;;;6.16;49.92;102495.75;5103739;27;45463;-61
2022/02/28 02:00:17;;;;;;;;;18.75;13.00;;;;;6.16;49.42;102493.13;5103312;27;47393;-61
2022/02/28 02:02:43;;;;;;;;;10.75;10.75;;;;;6.13;49.78;102491.44;5103519;27;45331;-61
2022/02/28 02:05:10;;;;;;;;;13.50;12.25;;;;;6.12;49.96;102494.06;5103551;27;45320;-61
2022/02/28 02:07:36;;;;;;;;;13.25;11.25;;;;;6.09;49.95;102491.50;5103581;27;45274;-62
2022/02/28 02:10:05;;;;;;;;;15.25;13.50;;;;;6.06;49.52;102487.16;5103062;27;45301;-61
2022/02/28 02:12:30;;;;;;;;;13.00;10.00;;;;;6.02;50.24;102474.16;5103526;27;45256;-61
2022/02/28 02:14:57;;;;;;;;;17.25;11.00;;;;;6.01;50.36;102482.91;5103394;27;45250;-61
2022/02/28 02:17:22;;;;;;;;;15.25;13.25;;;;;5.99;50.41;102490.75;5103438;27;45389;-61
2022/02/28 02:19:53;;;;;;;;;12.00;10.00;;;;;5.96;50.34;102484.69;5103038;27;46170;-61
2022/02/28 02:22:21;;;;;;;;;13.00;10.75;;;;;5.94;50.45;102489.09;5103147;27;45476;-61
2022/02/28 02:24:50;;;;;;;;;12.75;6.50;;;;;5.92;50.65;102490.81;5103248;27;45320;-61
2022/02/28 02:27:16;;;;;;;;;13.50;9.00;;;;;5.89;50.58;102482.09;5103229;27;45454;-61
2022/02/28 02:29:41;;;;;;;;;13.75;8.50;;;;;5.85;50.84;102479.56;5102865;27;46131;-61
2022/02/28 02:32:11;;;;;;;;;14.00;11.50;;;;;5.84;50.82;102478.66;5103012;27;45411;-61
2022/02/28 02:34:37;;;;;;;;;11.00;9.50;;;;;5.83;50.49;102486.53;5099996;27;45177;-62
2022/02/28 02:37:03;;;;;;;;;16.50;10.00;;;;;5.82;50.64;102490.03;5082276;28;45506;-62
2022/02/28 02:39:29;;;;;;;;;11.75;10.00;;;;;5.77;50.71;102484.88;5085868;27;45404;-62
2022/02/28 02:41:54;;;;;;;;;15.75;10.25;;;;;5.72;51.06;102484.06;5096872;27;45306;-62
2022/02/28 02:44:20;;;;;;;;;15.25;13.25;;;;;5.69;51.22;102478.88;5085044;27;45507;-61
2022/02/28 02:46:47;;;;;;;;;10.75;10.00;;;;;5.68;51.23;102481.47;5082458;28;45245;-62
2022/02/28 02:49:15;;;;;;;;;10.50;10.25;;;;;5.66;51.04;102486.72;5081965;27;46097;-62
2022/02/28 02:51:42;;;;;;;;;16.75;12.00;;;;;5.63;51.66;102485.91;5082014;28;45264;-62
2022/02/28 02:54:08;;;;;;;;;14.50;11.25;;;;;5.59;51.04;102485.94;5082292;28;45504;-61
2022/02/28 02:56:34;;;;;;;;;9.00;7.50;;;;;5.59;51.66;102487.69;5082279;28;45413;-62
2022/02/28 02:59:00;;;;;;;;;12.50;9.00;;;;;5.55;51.64;102486.00;5082110;27;45425;-61
2022/02/28 03:01:26;;;;;;;;;15.00;11.25;;;;;5.52;51.25;102481.63;5081891;27;45335;-61
2022/02/28 03:03:53;;;;;;;;;13.25;12.00;;;;;5.52;50.97;102481.63;5082217;27;45371;-61
2022/02/28 03:06:19;;;;;;;;;14.00;12.50;;;;;5.51;52.04;102479.06;5081956;28;45517;-62
2022/02/28 03:08:44;;;;;;;;;12.25;6.00;;;;;5.50;51.02;102479.94;5082052;28;45337;-62
2022/02/28 03:11:10;;;;;;;;;16.25;9.25;;;;;5.48;50.93;102477.34;5081721;28;45200;-62
2022/02/28 03:13:35;;;;;;;;;15.50;9.50;;;;;5.48;51.12;102486.94;5082059;28;45306;-62
2022/02/28 03:16:01;;;;;;;;;13.25;12.00;;;;;5.46;51.23;102483.47;5082014;28;45498;-62
2022/02/28 03:18:26;;;;;;;;;13.00;12.50;;;;;5.43;51.21;102483.50;5081733;28;46330;-62
2022/02/28 03:20:52;;;;;;;;;15.75;11.25;;;;;5.40;51.28;102484.41;5081744;27;45505;-61
2022/02/28 03:23:17;;;;;;;;;15.00;11.00;;;;;5.38;51.62;102486.16;5081790;28;45314;-61
2022/02/28 03:25:43;;;;;;;;;12.75;11.50;;;;;5.34;51.71;102479.22;5081865;28;45422;-61
2022/02/28 03:28:08;;;;;;;;;14.00;9.25;;;;;5.31;51.88;102480.13;5081576;27;45497;-62
2022/02/28 03:30:34;;;;;;;;;15.50;12.50;;;;;5.30;51.90;102478.41;5081444;28;45386;-62
2022/02/28 03:32:59;;;;;;;;;9.25;9.25;;;;;5.29;52.66;102475.78;5081750;27;45342;-62
2022/02/28 03:35:25;;;;;;;;;13.00;10.25;;;;;5.26;51.79;102476.69;5089989;27;45358;-61
2022/02/28 03:37:50;;;;;;;;;15.50;11.00;;;;;5.25;52.35;102476.69;5081281;27;45360;-62
2022/02/28 03:40:16;;;;;;;;;14.00;11.25;;;;;5.23;52.23;102481.94;5084614;27;45321;-62
2022/02/28 03:42:41;;;;;;;;;12.25;12.25;;;;;5.21;52.14;102481.09;5098065;27;45320;-62
2022/02/28 03:45:08;;;;;;;;;12.00;10.00;;;;;5.17;51.96;102471.53;5081766;28;45299;-62
2022/02/28 03:47:34;;;;;;;;;16.50;14.50;;;;;5.14;52.33;102478.56;5080987;28;45427;-62
2022/02/28 03:50:00;;;;;;;;;13.75;13.00;;;;;5.11;51.84;102475.94;5080668;27;45217;-62
2022/02/28 03:52:25;;;;;;;;;15.00;12.50;;;;;5.06;52.71;102473.41;5081223;28;45313;-62
2022/02/28 03:54:51;;;;;;;;;12.50;11.50;;;;;5.02;52.52;102474.28;5081487;28;45521;-62
2022/02/28 03:57:16;;;;;;;;;17.50;14.25;;;;;4.98;53.00;102483.91;5081201;27;45874;-62
2022/02/28 03:59:42;;;;;;;;;18.75;13.50;;;;;4.95;53.07;102480.44;5081357;28;45268;-62
2022/02/28 04:02:07;;;;;;;;;22.25;16.25;;;;;4.93;53.04;102474.38;5081087;27;45446;-62
2022/02/28 04:04:33;;;;;;;;;26.25;24.50;;;;;4.92;53.06;102472.63;5081469;28;45510;-62
2022/02/28 04:06:58;;;;;;;;;32.50;25.25;;;;;4.91;52.52;102477.00;5080611;27;46021;-62
2022/02/28 04:09:24;;;;;;;;;42.75;29.25;;;;;4.90;53.05;102474.41;5080926;28;45425;-62
2022/02/28 04:11:50;;;;;;;;;30.75;27.00;;;;;4.89;53.24;102476.13;5081119;28;45326;-61
2022/02/28 04:14:15;;;;;;;;;32.00;27.00;;;;;4.88;53.11;102474.41;5081241;28;45414;-62
2022/02/28 04:16:41;;;;;;;;;28.00;21.50;;;;;4.90;53.61;102472.66;5080742;28;45509;-61
2022/02/28 04:19:06;;;;;;;;;24.25;22.50;;;;;4.90;53.39;102470.03;5080822;27;45292;-61
2022/02/28 04:21:32;;;;;;;;;16.75;13.75;;;;;4.90;53.19;102472.66;5080875;28;45311;-62
2022/02/28 04:23:57;;;;;;;;;17.25;12.50;;;;;4.88;53.24;102477.00;5081133;27;45248;-62
2022/02/28 04:26:23;;;;;;;;;14.25;13.50;;;;;4.89;53.34;102477.88;5080695;28;45815;-62
2022/02/28 04:28:48;;;;;;;;;11.50;10.00;;;;;4.91;53.61;102491.81;5081021;28;45216;-62
2022/02/28 04:31:14;;;;;;;;;16.00;14.00;;;;;4.87;54.06;102485.72;5080646;28;45237;-62
2022/02/28 04:33:40;;;;;;;;;16.25;13.00;;;;;4.87;53.66;102488.34;5085831;27;45185;-62
2022/02/28 04:36:06;;;;;;;;;12.00;9.75;;;;;4.85;53.54;102491.84;5084626;27;45220;-62
2022/02/28 04:38:32;;;;;;;;;15.75;13.00;;;;;4.83;53.19;102491.00;5080709;28;45234;-62
2022/02/28 04:40:57;;;;;;;;;13.25;11.00;;;;;4.81;53.16;102487.50;5090207;27;45725;-62
2022/02/28 04:43:23;;;;;;;;;20.00;13.75;;;;;4.74;53.41;102482.34;5091921;27;45272;-62
2022/02/28 04:45:48;;;;;;;;;13.00;10.75;;;;;4.69;53.61;102489.34;5080341;28;45778;-62
2022/02/28 04:48:14;;;;;;;;;16.75;13.75;;;;;4.65;54.10;102479.78;5080516;28;45409;-62
2022/02/28 04:50:39;;;;;;;;;13.25;13.25;;;;;4.62;53.77;102490.25;5080655;28;45395;-61
2022/02/28 04:53:05;;;;;;;;;17.50;14.00;;;;;4.63;54.21;102485.91;5080425;28;45255;-62
2022/02/28 04:55:30;;;;;;;;;18.25;13.25;;;;;4.59;53.96;102484.19;5080433;28;45299;-62
2022/02/28 04:57:55;;;;;;;;;12.75;12.00;;;;;4.55;53.69;102485.94;5080714;28;45300;-62
2022/02/28 05:00:22;;;;;;;;;15.75;14.75;;;;;4.53;54.13;102486.84;5080753;28;45294;-62
2022/02/28 05:02:47;;;;;;;;;21.25;12.50;;;;;4.47;53.87;102488.59;5084263;28;45465;-62
2022/02/28 05:05:13;;;;;;;;;18.25;13.75;;;;;4.45;54.28;102490.34;5083782;27;45960;-62
2022/02/28 05:07:39;;;;;;;;;11.75;11.75;;;;;4.46;53.88;102493.84;5065466;28;45739;-62
2022/02/28 05:10:05;;;;;;;;;19.25;12.75;;;;;4.46;54.38;102494.69;5083757;28;45204;-62
2022/02/28 05:12:31;;;;;;;;;21.00;15.50;;;;;4.43;54.51;102499.09;5084126;28;45216;-61
2022/02/28 05:14:56;;;;;;;;;12.25;9.00;;;;;4.40;54.90;102499.94;5083581;27;45440;-62
2022/02/28 05:17:22;;;;;;;;;21.75;15.75;;;;;4.36;54.75;102503.47;5083849;28;45227;-61
2022/02/28 05:19:47;;;;;;;;;30.75;16.00;;;;;4.33;54.54;102511.28;5083726;28;45567;-62
2022/02/28 05:22:13;;;;;;;;;22.00;16.00;;;;;4.32;54.61;102513.91;5083728;28;45398;-62
2022/02/28 05:24:38;;;;;;;;;22.25;15.25;;;;;4.30;54.75;102511.31;5083390;27;46003;-61
2022/02/28 05:27:05;;;;;;;;;18.50;16.00;;;;;4.29;54.58;102516.53;5074681;27;45386;-62
2022/02/28 05:29:30;;;;;;;;;17.00;15.25;;;;;4.32;55.02;102517.38;5087673;27;45301;-62
2022/02/28 05:31:56;;;;;;;;;17.50;13.50;;;;;4.34;54.63;102513.00;5083655;28;45311;-62
2022/02/28 05:34:22;;;;;;;;;19.50;17.00;;;;;4.36;55.05;102513.03;5091324;27;46233;-62
2022/02/28 05:36:48;;;;;;;;;15.75;15.50;;;;;4.37;55.00;102513.03;5083448;27;45256;-61
2022/02/28 05:39:14;;;;;;;;;25.50;18.25;;;;;4.32;55.15;102514.78;5085526;27;45220;-61
2022/02/28 05:41:39;;;;;;;;;21.25;17.50;;;;;4.29;54.66;102506.09;5077340;27;45482;-61
2022/02/28 05:44:05;;;;;;;;;21.00;16.00;;;;;4.26;55.51;102508.72;5087969;27;45225;-61
2022/02/28 05:46:30;;;;;;;;;28.25;20.00;;;;;4.24;55.16;102510.47;5073576;27;45216;-61
2022/02/28 05:48:56;;;;;;;;;19.25;16.00;;;;;4.22;55.29;102514.84;5088112;27;45216;-61
2022/02/28 05:51:22;;;;;;;;;19.50;15.75;;;;;4.18;55.56;102512.22;5083066;27;45465;-61
2022/02/28 05:53:47;;;;;;;;;22.25;20.00;;;;;4.16;55.60;102529.63;5083063;28;45250;-61
2022/02/28 05:56:13;;;;;;;;;20.25;13.25;;;;;4.15;56.03;102530.50;5083309;28;45288;-62
2022/02/28 05:58:39;;;;;;;;;13.25;10.25;;;;;4.14;55.49;102533.97;5083086;28;45264;-62
2022/02/28 06:01:04;;;;;;;;;19.00;17.00;;;;;4.14;55.74;102533.13;5083240;27;45381;-62
2022/02/28 06:03:30;;;;;;;;;15.75;12.75;;;;;4.13;55.64;102539.22;5082831;27;45393;-62
2022/02/28 06:05:56;;;;;;;;;20.75;15.00;;;;;4.12;55.63;102535.75;5082834;27;45294;-62
2022/02/28 06:08:23;;;;;;;;;16.00;13.25;;;;;4.11;55.51;102544.44;5083150;27;45401;-62
2022/02/28 06:10:48;;;;;;;;;16.25;16.25;;;;;4.11;55.87;102541.84;5083004;27;45487;-62
2022/02/28 06:13:14;;;;;;;;;23.50;18.75;;;;;4.13;55.73;102539.22;5082251;27;45296;-62
2022/02/28 06:15:41;;;;;;;;;26.00;21.25;;;;;4.13;56.33;102542.69;5082686;27;45144;-62
2022/02/28 06:18:11;;;;;;;;;17.00;13.00;;;;;4.09;56.01;102545.28;5082748;27;45327;-62
2022/02/28 06:20:41;;;;;;;;;20.50;16.00;;;;;4.03;55.77;102543.59;5082808;28;45502;-62
2022/02/28 06:23:14;;;;;;;;;18.00;15.75;;;;;4.05;55.97;102538.38;5082395;27;46154;-61
2022/02/28 06:25:41;;;;;;;;;22.75;14.75;;;;;4.05;55.73;102534.03;5082770;28;45331;-61
2022/02/28 06:28:07;;;;;;;;;21.50;17.25;;;;;4.03;55.73;102537.47;5082605;27;45296;-61
2022/02/28 06:30:33;;;;;;;;;16.00;13.50;;;;;4.03;55.79;102541.00;5082540;28;45386;-62
2022/02/28 06:32:58;;;;;;;;;21.25;20.75;;;;;4.03;56.18;102538.38;5064270;28;45941;-61
2022/02/28 06:35:24;;;;;;;;;27.00;22.50;;;;;4.03;55.80;102538.38;5091316;27;45335;-61
2022/02/28 06:37:49;;;;;;;;;23.75;19.00;;;;;4.03;56.43;102540.09;5082222;28;45381;-61
2022/02/28 06:40:15;;;;;;;;;20.75;17.25;;;;;4.03;56.05;102546.22;5085664;27;45275;-61
2022/02/28 06:42:41;;;;;;;;;29.75;21.50;;;;;4.02;56.01;102547.06;5098917;27;45935;-61
2022/02/28 06:45:07;;;;;;;;;21.75;15.50;;;;;4.03;56.16;102546.22;5082370;27;45461;-61
2022/02/28 06:47:32;;;;;;;;;23.00;16.75;;;;;4.04;56.63;102560.09;5082113;27;45497;-61
2022/02/28 06:49:58;;;;;;;;;20.25;17.25;;;;;4.03;56.14;102554.03;5082442;28;45548;-61
2022/02/28 06:52:24;;;;;;;;;19.75;15.25;;;;;4.04;56.00;102557.50;5099105;27;45600;-61
2022/02/28 06:54:53;;;;;;;;;24.00;19.00;;;;;4.06;56.12;102556.63;5102771;27;45232;-61
2022/02/28 06:57:19;;;;;;;;;29.50;17.25;;;;;4.07;55.99;102550.53;5102457;27;45359;-61
2022/02/28 06:59:44;;;;;;;;;29.75;22.25;;;;;4.12;56.32;102550.53;5102623;27;45341;-61
2022/02/28 07:02:10;;;;;;;;;22.25;18.75;;;;;4.18;56.31;102550.47;5102112;27;45452;-61
2022/02/28 07:04:35;;;;;;;;;27.00;22.50;;;;;4.25;55.35;102556.53;5073176;28;45361;-61
2022/02/28 07:07:01;;;;;;;;;26.00;23.00;;;;;4.31;56.06;102559.13;5099481;27;45390;-61
2022/02/28 07:09:26;;;;;;;;;20.75;18.25;;;;;4.35;55.83;102556.53;5102401;27;45371;-61
2022/02/28 07:11:52;;;;;;;;;22.50;19.50;;;;;4.42;55.33;102549.50;5101958;27;45433;-61
2022/02/28 07:14:17;;;;;;;;;22.00;17.50;;;;;4.49;55.80;102559.91;5102186;27;45427;-61
2022/02/28 07:16:43;;;;;;;;;21.00;16.25;;;;;4.59;55.45;102559.88;5101940;27;45236;-61
2022/02/28 07:19:08;;;;;;;;;26.50;20.00;;;;;4.67;55.29;102563.31;5102455;27;45240;-61
2022/02/28 07:21:35;;;;;;;;;29.75;19.75;;;;;4.74;55.17;102560.66;5101655;27;45977;-61
2022/02/28 07:24:01;;;;;;;;;34.00;19.75;;;;;4.81;55.18;102558.00;5101158;27;45234;-61
2022/02/28 07:26:29;;;;;;;;;31.50;25.00;;;;;4.86;55.12;102566.69;5102015;27;45292;-62
2022/02/28 07:28:55;;;;;;;;;22.00;21.00;;;;;4.91;54.73;102571.00;5102074;27;45477;-61
2022/02/28 07:31:20;;;;;;;;;24.75;19.50;;;;;4.96;54.46;102565.72;5101355;27;45477;-61
2022/02/28 07:33:47;;;;;;;;;23.50;20.50;;;;;5.01;54.09;102575.28;5101881;27;45289;-63
2022/02/28 07:36:12;;;;;;;;;18.50;16.00;;;;;5.06;53.86;102572.66;5083754;27;45337;-62
2022/02/28 07:38:39;;;;;;;;;26.75;18.25;;;;;5.11;53.33;102583.03;5081786;28;45245;-61
2022/02/28 07:41:05;;;;;;;;;26.50;17.00;;;;;5.16;53.63;102582.16;5099080;27;46656;-62
2022/02/28 07:43:31;;;;;;;;;16.75;15.00;;;;;5.23;53.17;102593.41;5091014;27;45311;-62
2022/02/28 07:45:57;;;;;;;;;25.00;19.50;;;;;5.28;52.97;102587.25;5081158;28;45181;-62
2022/02/28 07:48:22;;;;;;;;;20.00;16.50;;;;;5.35;52.63;102593.31;5081284;27;45405;-62
2022/02/28 07:50:48;;;;;;;;;18.25;16.00;;;;;5.39;52.95;102589.81;5080702;27;45216;-62
2022/02/28 07:53:13;;;;;;;;;28.75;20.00;;;;;5.46;53.01;102598.47;5081210;28;45268;-62
2022/02/28 07:55:39;;;;;;;;;26.50;18.00;;;;;5.52;52.51;102598.41;5081122;28;45315;-61
2022/02/28 07:58:04;;;;;;;;;29.75;22.50;;;;;5.58;52.24;102591.38;5081649;28;45324;-62
2022/02/28 08:00:30;;;;;;;;;28.50;20.00;;;;;5.63;53.38;102596.56;5080928;28;45886;-61
2022/02/28 08:02:55;;;;;;;;;31.50;23.00;;;;;5.72;53.00;102595.63;5081032;28;45344;-61
2022/02/28 08:05:21;;;;;;;;;27.25;23.00;;;;;5.75;52.79;102590.34;5081126;28;45421;-62
2022/02/28 08:07:46;;;;;;;;;31.75;27.75;;;;;5.81;52.63;102582.47;5080879;28;45497;-62
2022/02/28 08:10:12;;;;;;;;;26.00;22.00;;;;;5.86;52.47;102578.06;5080686;28;45937;-62
2022/02/28 08:12:37;;;;;;;;;30.25;21.00;;;;;5.89;52.90;102578.88;5080849;28;45483;-61
2022/02/28 08:15:03;;;;;;;;;19.50;17.00;;;;;5.95;52.08;102569.28;5081035;27;45469;-62
2022/02/28 08:17:29;;;;;;;;;33.75;23.25;;;;;6.03;52.93;102567.44;5080692;28;45224;-62
2022/02/28 08:19:55;;;;;;;;;26.50;21.50;;;;;6.10;52.50;102569.97;5080469;28;45225;-63
2022/02/28 08:22:20;;;;;;;;;23.25;20.75;;;;;6.18;51.75;102569.03;5080686;27;45383;-62
2022/02/28 08:24:46;;;;;;;;;32.75;21.75;;;;;6.25;51.86;102566.31;5080821;27;45377;-63
2022/02/28 08:27:11;;;;;;;;;30.75;23.25;;;;;6.35;52.05;102565.31;5081137;28;45235;-62
2022/02/28 08:29:36;;;;;;;;;26.50;22.00;;;;;6.40;51.75;102547.81;5080563;28;45872;-62
2022/02/28 08:32:03;;;;;;;;;50.00;31.75;;;;;6.49;50.93;102559.03;5080587;28;45229;-62
2022/02/28 08:34:28;;;;;;;;;28.25;20.75;;;;;6.53;50.14;102560.72;5090243;27;45327;-62
2022/02/28 08:36:54;;;;;;;;;22.00;15.00;;;;;6.63;50.18;102559.69;5084373;27;45608;-62
2022/02/28 08:39:19;;;;;;;;;18.50;16.25;;;;;6.72;49.51;102559.59;5087614;27;45884;-63
2022/02/28 08:41:45;;;;;;;;;25.00;17.50;;;;;6.79;49.20;102557.72;5097339;27;45455;-63
2022/02/28 08:44:10;;;;;;;;;18.25;15.00;;;;;6.79;49.53;102561.22;5088528;27;45292;-62
2022/02/28 08:46:37;;;;;;;;;20.75;18.00;;;;;6.78;49.06;102567.34;5084199;27;45475;-62
2022/02/28 08:49:03;;;;;;;;;19.00;18.75;;;;;6.82;49.14;102569.06;5083657;28;45470;-62
2022/02/28 08:51:29;;;;;;;;;21.25;17.75;;;;;6.83;49.32;102560.31;5083938;27;45215;-62
2022/02/28 08:53:54;;;;;;;;;17.50;15.50;;;;;6.87;49.45;102559.38;5084159;28;45410;-62
2022/02/28 08:56:20;;;;;;;;;21.50;19.75;;;;;6.93;49.17;102558.41;5084352;28;45225;-62
2022/02/28 08:58:46;;;;;;;;;22.00;15.00;;;;;7.01;48.53;102561.78;5083878;28;45996;-62
2022/02/28 09:01:11;;;;;;;;;15.50;13.00;;;;;7.05;48.12;102562.59;5083982;27;45186;-62
2022/02/28 09:03:36;;;;;;;;;19.25;18.00;;;;;7.13;48.84;102560.72;5084111;27;45463;-62
2022/02/28 09:06:02;;;;;;;;;22.25;18.50;;;;;7.20;48.44;102554.50;5084036;27;45335;-62
2022/02/28 09:08:28;;;;;;;;;21.00;18.25;;;;;7.25;48.51;102550.03;5083730;27;45683;-62
2022/02/28 09:10:53;;;;;;;;;24.00;21.25;;;;;7.37;48.36;102559.47;5083732;27;45405;-62
2022/02/28 09:13:19;;;;;;;;;22.50;17.75;;;;;7.45;47.82;102561.06;5083883;27;45327;-62
2022/02/28 09:15:44;;;;;;;;;13.00;13.00;;;;;7.52;47.67;102562.69;5083863;28;45327;-62
2022/02/28 09:18:11;;;;;;;;;19.75;18.75;;;;;7.60;47.80;102567.81;5083478;27;45362;-62
2022/02/28 09:20:37;;;;;;;;;17.25;15.50;;;;;7.68;47.34;102565.06;5083450;28;45320;-62
2022/02/28 09:23:03;;;;;;;;;22.00;18.75;;;;;7.72;46.95;102570.19;5083738;27;45338;-62
2022/02/28 09:25:28;;;;;;;;;25.25;19.50;;;;;7.77;47.22;102576.25;5083776;27;45220;-62
2022/02/28 09:27:54;;;;;;;;;17.50;16.00;;;;;7.83;47.27;102573.50;5083460;27;45256;-62
2022/02/28 09:30:20;;;;;;;;;19.00;16.75;;;;;7.88;47.21;102562.91;5083471;28;45208;-62
2022/02/28 09:32:45;;;;;;;;;23.25;15.75;;;;;7.97;46.95;102578.47;5083292;27;45201;-62
2022/02/28 09:35:11;;;;;;;;;22.50;20.00;;;;;8.02;46.84;102581.03;5091937;27;45538;-62
2022/02/28 09:37:37;;;;;;;;;19.25;14.75;;;;;8.07;46.81;102585.31;5082970;27;45521;-62
2022/02/28 09:40:04;;;;;;;;;17.75;14.50;;;;;8.11;46.70;102596.59;5085922;27;45230;-62
2022/02/28 09:42:31;;;;;;;;;18.25;16.00;;;;;8.16;46.66;102583.38;5100111;27;45472;-62
2022/02/28 09:44:57;;;;;;;;;19.25;16.00;;;;;8.21;46.50;102590.25;5083694;27;45252;-62
2022/02/28 09:47:23;;;;;;;;;28.75;19.25;;;;;8.24;46.34;102586.72;5081879;27;46072;-62
2022/02/28 09:49:48;;;;;;;;;17.50;12.00;;;;;8.31;46.07;102593.59;5083086;28;45239;-62
2022/02/28 09:52:14;;;;;;;;;18.75;15.25;;;;;8.37;45.98;102591.75;5082982;27;45350;-62
2022/02/28 09:54:40;;;;;;;;;16.50;16.50;;;;;8.44;45.81;102583.72;5083308;28;45493;-62
2022/02/28 09:57:08;;;;;;;;;25.75;20.50;;;;;8.49;45.77;102593.25;5082687;27;45571;-62
2022/02/28 09:59:36;;;;;;;;;25.25;20.00;;;;;8.54;45.63;102574.78;5082853;28;45429;-63
2022/02/28 10:02:02;;;;;;;;;22.00;18.00;;;;;8.61;45.69;102576.34;5082929;27;45499;-63
2022/02/28 10:04:27;;;;;;;;;20.00;16.50;;;;;8.61;45.37;102578.97;5083269;27;45630;-63
2022/02/28 10:06:53;;;;;;;;;21.00;15.25;;;;;8.57;45.28;102583.44;5082529;27;46072;-63
2022/02/28 10:09:20;;;;;;;;;21.75;19.25;;;;;8.59;45.50;102584.25;5082794;27;45677;-63
2022/02/28 10:11:51;;;;;;;;;21.50;16.75;;;;;8.66;45.45;102575.34;5082819;28;45181;-62
2022/02/28 10:14:18;;;;;;;;;23.25;19.75;;;;;8.72;45.49;102571.72;5083285;27;45318;-62
2022/02/28 10:17:00;;;;;;;;;49.25;40.25;;;;;8.81;45.43;102582.03;5082354;27;45915;-63
2022/02/28 10:19:29;;;;;;;;;25.75;17.00;;;;;8.87;45.36;102578.41;5082570;28;45423;-63
2022/02/28 10:22:05;;;;;;;;;18.00;16.25;;;;;8.92;45.04;102587.03;5082459;27;45307;-63
2022/02/28 10:24:32;;;;;;;;;16.25;14.50;;;;;9.01;44.96;102593.88;5082758;28;45361;-63
2022/02/28 10:26:58;;;;;;;;;22.50;17.75;;;;;9.02;44.91;102588.56;5082588;27;45401;-63
2022/02/28 10:29:27;;;;;;;;;19.50;17.00;;;;;9.06;44.53;102591.97;5082197;27;45351;-63
2022/02/28 10:32:00;;;;;;;;;17.00;16.00;;;;;9.06;44.75;102598.09;5082509;28;45359;-63
2022/02/28 10:34:28;;;;;;;;;20.25;17.00;;;;;9.08;44.61;102604.19;5091553;27;45414;-63
2022/02/28 10:36:59;;;;;;;;;17.75;15.75;;;;;9.15;44.34;102611.03;5082215;28;46014;-63
2022/02/28 10:39:30;;;;;;;;;18.25;17.00;;;;;9.21;44.35;102607.41;5085507;27;45448;-63
2022/02/28 10:42:12;;;;;;;;;24.75;16.00;;;;;9.27;43.60;102595.88;5096810;27;45280;-63
2022/02/28 10:44:39;;;;;;;;;19.75;13.50;;;;;9.34;44.10;102590.44;5082528;27;45331;-63
2022/02/28 10:47:07;;;;;;;;;15.75;14.25;;;;;9.41;43.70;102583.25;5081875;27;45237;-63
2022/02/28 10:49:34;;;;;;;;;18.50;16.50;;;;;9.49;43.88;102583.94;5082333;27;45434;-63
2022/02/28 10:52:10;;;;;;;;;20.75;15.00;;;;;9.55;43.20;102582.88;5081789;27;45468;-63
2022/02/28 10:54:44;;;;;;;;;26.25;21.75;;;;;9.60;43.11;102588.91;5082304;28;45350;-63
2022/02/28 10:57:18;;;;;;;;;17.75;17.00;;;;;9.64;43.04;102593.22;5082051;27;45374;-63
2022/02/28 10:59:52;;;;;;;;;23.00;18.75;;;;;9.68;43.02;102593.06;5082047;27;45343;-63
2022/02/28 11:02:36;;;;;;;;;17.00;14.50;;;;;9.76;43.05;102593.75;5082001;27;45224;-63
2022/02/28 11:05:26;;;;;;;;;20.50;19.25;;;;;9.83;42.47;102593.59;5082184;27;45300;-63
2022/02/28 11:07:58;;;;;;;;;17.75;17.00;;;;;9.87;42.67;102606.59;5081617;27;45357;-63
2022/02/28 11:10:24;;;;;;;;;24.25;19.50;;;;;9.93;42.70;102601.19;5081652;27;45600;-63
2022/02/28 11:12:49;;;;;;;;;17.00;15.25;;;;;10.02;42.37;102592.16;5082231;28;45303;-63